Time;durP1;ratioP1;P1;durP2;ratioP2;P2;SDS_P1;SDS_P2;PMS_P1;PMS_P2;Temp;Humidity;BMP_temperature;BMP_pressure;BME280_temperature;BME280_humidity;BME280_pressure;Samples;Min_cycle;Max_cycle;Signal;HPM_P1;HPM_P2
2022/07/18 00:01:35;;;;;;;364.00;183.93;;;;;;;;;;4982469;28;20225;-50
2022/07/18 00:04:01;;;;;;;393.17;197.07;;;;;;;;;;4981087;28;20233;-50
2022/07/18 00:06:27;;;;;;;398.43;196.03;;;;;;;;;;4980017;28;20201;-50
2022/07/18 00:08:53;;;;;;;349.10;172.40;;;;;;;;;;4986768;28;20515;-50
2022/07/18 00:11:19;;;;;;;389.30;189.67;;;;;;;;;;4980770;28;20559;-50
2022/07/18 00:13:45;;;;;;;382.23;186.30;;;;;;;;;;4982177;28;20225;-50
2022/07/18 00:16:11;;;;;;;363.53;180.70;;;;;;;;;;4983782;28;20225;-50
2022/07/18 00:18:37;;;;;;;389.77;194.10;;;;;;;;;;4975712;28;20193;-50
2022/07/18 00:21:03;;;;;;;340.80;172.60;;;;;;;;;;4982025;28;20190;-49
2022/07/18 00:23:29;;;;;;;307.83;152.30;;;;;;;;;;4979567;28;20246;-49
2022/07/18 00:25:55;;;;;;;320.63;163.10;;;;;;;;;;4979356;28;20678;-48
2022/07/18 00:28:21;;;;;;;323.67;160.87;;;;;;;;;;4979117;28;20709;-49
2022/07/18 00:30:47;;;;;;;336.27;165.90;;;;;;;;;;4979086;28;20288;-49
2022/07/18 00:33:13;;;;;;;343.93;174.27;;;;;;;;;;4979459;28;20181;-49
2022/07/18 00:35:39;;;;;;;326.93;165.93;;;;;;;;;;4978919;28;20328;-48
2022/07/18 00:38:05;;;;;;;321.47;157.47;;;;;;;;;;4979066;28;20230;-49
2022/07/18 00:40:31;;;;;;;310.97;152.27;;;;;;;;;;4978897;28;20226;-48
2022/07/18 00:42:57;;;;;;;324.47;158.10;;;;;;;;;;4979357;28;20723;-48
2022/07/18 00:45:24;;;;;;;332.33;167.20;;;;;;;;;;4978950;28;20507;-48
2022/07/18 00:47:53;;;;;;;324.93;161.63;;;;;;;;;;4979502;28;20201;-49
2022/07/18 00:50:19;;;;;;;323.63;162.90;;;;;;;;;;4978874;28;20233;-48
2022/07/18 00:52:46;;;;;;;292.80;143.17;;;;;;;;;;4978953;28;20221;-48
2022/07/18 00:55:12;;;;;;;322.53;158.83;;;;;;;;;;4978704;28;20226;-48
2022/07/18 00:57:39;;;;;;;325.60;162.67;;;;;;;;;;4979223;28;20213;-48
2022/07/18 01:02:51;;;;;;;309.10;151.40;;;;;;;;;;4978896;28;20566;-48
2022/07/18 01:05:17;;;;;;;320.97;155.73;;;;;;;;;;4978500;28;20490;-49
2022/07/18 01:07:43;;;;;;;320.85;156.75;;;;;;;;;;4979257;28;20235;-48
2022/07/18 01:10:09;;;;;;;330.80;162.70;;;;;;;;;;4978532;28;20221;-49
2022/07/18 01:12:35;;;;;;;320.47;157.00;;;;;;;;;;4979221;28;20619;-49
2022/07/18 01:15:01;;;;;;;331.73;163.00;;;;;;;;;;4979120;28;20182;-49
2022/07/18 01:17:27;;;;;;;320.17;154.97;;;;;;;;;;4978490;28;20229;-49
2022/07/18 01:19:53;;;;;;;311.03;151.63;;;;;;;;;;4978545;28;20223;-49
2022/07/18 01:22:20;;;;;;;327.93;159.20;;;;;;;;;;4978711;28;20221;-49
2022/07/18 01:24:46;;;;;;;325.33;161.17;;;;;;;;;;4978582;28;20226;-49
2022/07/18 01:27:19;;;;;;;317.60;154.20;;;;;;;;;;4979099;28;20261;-48
2022/07/18 01:29:46;;;;;;;322.73;159.13;;;;;;;;;;4978483;28;20265;-48
2022/07/18 01:32:13;;;;;;;319.37;158.63;;;;;;;;;;4980490;28;20229;-49
2022/07/18 01:34:39;;;;;;;326.73;158.60;;;;;;;;;;4982277;28;20227;-48
2022/07/18 01:37:06;;;;;;;317.87;155.77;;;;;;;;;;4982163;28;20728;-48
2022/07/18 01:39:32;;;;;;;322.40;159.60;;;;;;;;;;4982248;28;20182;-48
2022/07/18 01:42:02;;;;;;;331.90;165.30;;;;;;;;;;4982780;28;20186;-49
2022/07/18 01:44:28;;;;;;;328.93;165.23;;;;;;;;;;4982464;28;20226;-48
2022/07/18 01:46:54;;;;;;;301.33;152.77;;;;;;;;;;4982168;28;20691;-49
2022/07/18 01:49:20;;;;;;;310.73;158.57;;;;;;;;;;4981800;28;20249;-49
2022/07/18 01:51:47;;;;;;;312.07;159.87;;;;;;;;;;5013399;28;20542;-48
2022/07/18 01:54:13;;;;;;;327.20;166.20;;;;;;;;;;4982365;28;20608;-49
2022/07/18 01:56:39;;;;;;;334.30;163.53;;;;;;;;;;4981980;28;20647;-48
2022/07/18 01:59:05;;;;;;;330.23;163.43;;;;;;;;;;4981941;28;20233;-49
2022/07/18 02:01:31;;;;;;;319.20;157.93;;;;;;;;;;4981892;28;20579;-49
2022/07/18 02:03:57;;;;;;;324.47;162.30;;;;;;;;;;4981985;28;20226;-48
2022/07/18 02:06:23;;;;;;;309.17;156.17;;;;;;;;;;4982070;28;20662;-48
2022/07/18 02:08:49;;;;;;;333.80;164.00;;;;;;;;;;4981938;28;20484;-49
2022/07/18 02:11:15;;;;;;;332.63;167.23;;;;;;;;;;4981808;28;20682;-48
2022/07/18 02:13:41;;;;;;;322.23;158.33;;;;;;;;;;4981676;28;20222;-49
2022/07/18 02:16:07;;;;;;;324.33;158.97;;;;;;;;;;4981824;28;20276;-49
2022/07/18 02:18:33;;;;;;;323.47;160.07;;;;;;;;;;4981717;28;20204;-48
2022/07/18 02:21:00;;;;;;;305.73;151.57;;;;;;;;;;4981826;28;20178;-49
2022/07/18 02:23:26;;;;;;;328.20;164.57;;;;;;;;;;4981804;28;20226;-49
2022/07/18 02:25:52;;;;;;;334.07;167.20;;;;;;;;;;4981275;28;20570;-49
2022/07/18 02:28:18;;;;;;;334.50;167.90;;;;;;;;;;4981142;28;20245;-48
2022/07/18 02:30:44;;;;;;;332.57;162.43;;;;;;;;;;4981121;28;20229;-48
2022/07/18 02:33:10;;;;;;;330.27;164.03;;;;;;;;;;4981797;28;20174;-48
2022/07/18 02:35:36;;;;;;;306.50;155.00;;;;;;;;;;4981140;28;20571;-49
2022/07/18 02:38:02;;;;;;;331.73;162.67;;;;;;;;;;4981320;28;20261;-49
2022/07/18 02:40:28;;;;;;;308.20;155.03;;;;;;;;;;4981408;28;20285;-49
2022/07/18 02:42:54;;;;;;;321.47;158.30;;;;;;;;;;4980546;28;20221;-49
2022/07/18 02:45:20;;;;;;;323.00;159.70;;;;;;;;;;4981226;28;20190;-49
2022/07/18 02:47:46;;;;;;;323.83;160.00;;;;;;;;;;4980868;28;20550;-49
2022/07/18 02:50:12;;;;;;;337.77;166.27;;;;;;;;;;4980636;28;20566;-48
2022/07/18 02:52:39;;;;;;;313.90;154.53;;;;;;;;;;4981149;28;20226;-49
2022/07/18 02:55:05;;;;;;;304.43;152.17;;;;;;;;;;4981089;28;20519;-49
2022/07/18 02:57:31;;;;;;;307.60;153.83;;;;;;;;;;4980818;28;20194;-49
2022/07/18 02:59:57;;;;;;;294.67;146.30;;;;;;;;;;4981395;28;20476;-48
2022/07/18 03:02:23;;;;;;;311.07;154.60;;;;;;;;;;4980874;28;20229;-48
2022/07/18 03:04:49;;;;;;;324.43;159.70;;;;;;;;;;4980622;28;20563;-49
2022/07/18 03:07:15;;;;;;;318.27;155.13;;;;;;;;;;4980646;28;20226;-48
2022/07/18 03:09:41;;;;;;;321.83;156.47;;;;;;;;;;4980566;28;20292;-48
2022/07/18 03:12:07;;;;;;;335.73;162.20;;;;;;;;;;4981189;28;20174;-49
2022/07/18 03:14:33;;;;;;;332.93;161.20;;;;;;;;;;4980880;28;20230;-49
2022/07/18 03:17:00;;;;;;;305.67;149.00;;;;;;;;;;4980530;28;20237;-49
2022/07/18 03:19:25;;;;;;;316.20;156.97;;;;;;;;;;4980858;28;20230;-49
2022/07/18 03:21:52;;;;;;;333.57;162.80;;;;;;;;;;4980573;28;20257;-48
2022/07/18 03:24:18;;;;;;;324.87;157.23;;;;;;;;;;4981213;28;20518;-49
2022/07/18 03:26:44;;;;;;;340.00;163.53;;;;;;;;;;4980551;28;20233;-48
2022/07/18 03:29:11;;;;;;;310.60;150.63;;;;;;;;;;4980251;28;20237;-49
2022/07/18 03:31:37;;;;;;;346.17;166.17;;;;;;;;;;4978786;28;20248;-48
2022/07/18 03:34:03;;;;;;;354.83;169.37;;;;;;;;;;4977694;28;20253;-49
2022/07/18 03:36:29;;;;;;;335.17;160.33;;;;;;;;;;4979058;28;20190;-48
2022/07/18 03:38:55;;;;;;;343.73;163.27;;;;;;;;;;4980701;28;20170;-49
2022/07/18 03:41:21;;;;;;;324.80;156.97;;;;;;;;;;4980068;28;20306;-49
2022/07/18 03:43:47;;;;;;;328.90;156.53;;;;;;;;;;4979960;28;20567;-49
2022/07/18 03:46:13;;;;;;;333.83;160.50;;;;;;;;;;4979822;28;20226;-48
2022/07/18 03:48:39;;;;;;;335.83;160.33;;;;;;;;;;4979763;28;20182;-48
2022/07/18 03:51:05;;;;;;;337.33;161.20;;;;;;;;;;4980524;28;20187;-48
2022/07/18 03:53:31;;;;;;;330.37;156.40;;;;;;;;;;4979893;28;20245;-48
2022/07/18 03:55:58;;;;;;;325.80;156.17;;;;;;;;;;4979449;28;20302;-48
2022/07/18 03:58:24;;;;;;;321.23;154.27;;;;;;;;;;4980155;28;20241;-49
2022/07/18 04:00:49;;;;;;;330.50;158.20;;;;;;;;;;4979574;28;20226;-48
2022/07/18 04:03:18;;;;;;;331.20;161.27;;;;;;;;;;4980050;28;20174;-48
2022/07/18 04:05:44;;;;;;;339.83;164.27;;;;;;;;;;4979575;28;20230;-48
2022/07/18 04:08:10;;;;;;;332.00;162.80;;;;;;;;;;4979621;28;20230;-48
2022/07/18 04:10:39;;;;;;;314.87;156.50;;;;;;;;;;4979375;28;20237;-48
2022/07/18 04:13:05;;;;;;;328.00;159.60;;;;;;;;;;4979569;28;20251;-49
2022/07/18 04:15:31;;;;;;;329.13;166.47;;;;;;;;;;4979566;28;20178;-49
2022/07/18 04:17:57;;;;;;;303.40;156.40;;;;;;;;;;4979850;28;20190;-48
2022/07/18 04:20:23;;;;;;;329.77;166.10;;;;;;;;;;4979270;28;20226;-49
2022/07/18 04:22:56;;;;;;;331.93;166.20;;;;;;;;;;4979217;28;20229;-48
2022/07/18 04:25:24;;;;;;;320.27;161.10;;;;;;;;;;4979313;28;20233;-48
2022/07/18 04:27:50;;;;;;;322.50;163.87;;;;;;;;;;4979084;28;20230;-49
2022/07/18 04:30:18;;;;;;;321.77;160.10;;;;;;;;;;4979516;28;20179;-48
2022/07/18 04:32:44;;;;;;;317.07;159.83;;;;;;;;;;4979099;28;20237;-48
2022/07/18 04:35:11;;;;;;;326.90;164.33;;;;;;;;;;4979184;28;20245;-48
2022/07/18 04:37:38;;;;;;;323.17;163.07;;;;;;;;;;4979329;28;20233;-48
2022/07/18 04:40:04;;;;;;;334.80;166.57;;;;;;;;;;4979053;28;20229;-48
2022/07/18 04:42:30;;;;;;;320.47;161.07;;;;;;;;;;4979018;28;20182;-49
2022/07/18 04:44:57;;;;;;;330.20;165.83;;;;;;;;;;4979502;28;20611;-49
2022/07/18 04:47:23;;;;;;;336.23;168.20;;;;;;;;;;4978387;28;20234;-48
2022/07/18 04:49:49;;;;;;;319.73;160.07;;;;;;;;;;4978688;28;20229;-48
2022/07/18 04:52:15;;;;;;;331.40;166.63;;;;;;;;;;4978907;28;20222;-49
2022/07/18 04:54:41;;;;;;;321.83;163.47;;;;;;;;;;4978873;28;20230;-48
2022/07/18 04:57:07;;;;;;;329.13;167.50;;;;;;;;;;4979122;28;20190;-49
2022/07/18 04:59:33;;;;;;;349.80;172.03;;;;;;;;;;4978514;28;20226;-49
2022/07/18 05:01:59;;;;;;;366.37;184.00;;;;;;;;;;4978107;28;20226;-48
2022/07/18 05:04:24;;;;;;;345.87;174.33;;;;;;;;;;4976362;28;20237;-48
2022/07/18 05:06:50;;;;;;;338.10;175.87;;;;;;;;;;5006708;28;20253;-48
2022/07/18 05:09:16;;;;;;;352.77;181.57;;;;;;;;;;4976728;28;20539;-48
2022/07/18 05:11:42;;;;;;;340.33;177.90;;;;;;;;;;4978434;28;20229;-48
2022/07/18 05:14:08;;;;;;;322.97;166.97;;;;;;;;;;4979047;28;20231;-48
2022/07/18 05:16:34;;;;;;;318.10;162.47;;;;;;;;;;4978413;28;20229;-49
2022/07/18 05:19:00;;;;;;;352.93;182.10;;;;;;;;;;4977889;28;20229;-49
2022/07/18 05:21:26;;;;;;;344.80;179.13;;;;;;;;;;5007768;28;20190;-49
2022/07/18 05:23:52;;;;;;;365.00;187.57;;;;;;;;;;4976474;28;20426;-48
2022/07/18 05:26:18;;;;;;;360.13;183.13;;;;;;;;;;4976389;28;20571;-48
2022/07/18 05:28:44;;;;;;;299.23;159.77;;;;;;;;;;4977876;28;20284;-51
2022/07/18 05:31:10;;;;;;;314.93;167.33;;;;;;;;;;4978673;28;20222;-51
2022/07/18 05:33:35;;;;;;;333.43;176.70;;;;;;;;;;4978575;28;20194;-51
2022/07/18 05:36:01;;;;;;;335.87;178.33;;;;;;;;;;4978537;28;20175;-51
2022/07/18 05:38:27;;;;;;;333.23;174.03;;;;;;;;;;4978494;28;20230;-51
2022/07/18 05:40:53;;;;;;;335.00;176.40;;;;;;;;;;4976894;28;20234;-50
2022/07/18 05:43:19;;;;;;;362.37;187.53;;;;;;;;;;4977326;28;20225;-51
2022/07/18 05:45:45;;;;;;;341.87;177.73;;;;;;;;;;4978303;28;20221;-51
2022/07/18 05:48:11;;;;;;;345.80;179.97;;;;;;;;;;4978274;28;20202;-51
2022/07/18 05:50:37;;;;;;;326.50;170.87;;;;;;;;;;4978462;28;20225;-51
2022/07/18 05:53:03;;;;;;;305.10;159.97;;;;;;;;;;4977021;28;20730;-50
2022/07/18 05:55:29;;;;;;;347.87;182.70;;;;;;;;;;4977853;28;20284;-51
2022/07/18 05:57:55;;;;;;;327.53;174.60;;;;;;;;;;4978334;28;20225;-50
2022/07/18 06:00:21;;;;;;;365.87;191.23;;;;;;;;;;4977477;28;20170;-50
2022/07/18 06:02:48;;;;;;;343.27;184.23;;;;;;;;;;4978106;28;20175;-50
2022/07/18 06:05:14;;;;;;;347.40;180.10;;;;;;;;;;4977657;28;20555;-50
2022/07/18 06:07:40;;;;;;;326.97;170.70;;;;;;;;;;4977672;28;20233;-50
2022/07/18 06:10:06;;;;;;;323.63;169.30;;;;;;;;;;4978306;28;20218;-50
2022/07/18 06:12:32;;;;;;;351.93;182.57;;;;;;;;;;4977922;28;20225;-49
2022/07/18 06:14:59;;;;;;;339.47;185.73;;;;;;;;;;4978459;28;20623;-50
2022/07/18 06:17:25;;;;;;;322.33;167.17;;;;;;;;;;4978454;28;20237;-49
2022/07/18 06:19:51;;;;;;;337.00;178.17;;;;;;;;;;4981143;28;20226;-48
2022/07/18 06:22:17;;;;;;;332.80;171.50;;;;;;;;;;4979208;28;20280;-48
2022/07/18 06:24:43;;;;;;;344.43;176.43;;;;;;;;;;4981056;28;20674;-48
2022/07/18 06:27:09;;;;;;;324.27;173.63;;;;;;;;;;4981658;28;20194;-49
2022/07/18 06:29:35;;;;;;;334.43;179.10;;;;;;;;;;4981570;28;20678;-48
2022/07/18 06:32:01;;;;;;;342.33;186.83;;;;;;;;;;4980986;28;20226;-48
2022/07/18 06:34:27;;;;;;;336.45;179.32;;;;;;;;;;4981297;28;20229;-49
2022/07/18 06:36:53;;;;;;;342.77;185.15;;;;;;;;;;4980921;28;20230;-49
2022/07/18 06:39:19;;;;;;;342.93;189.43;;;;;;;;;;4981460;28;20174;-49
2022/07/18 06:41:45;;;;;;;334.80;183.13;;;;;;;;;;4980985;28;20218;-49
2022/07/18 06:44:11;;;;;;;347.87;200.27;;;;;;;;;;4980734;28;20226;-50
2022/07/18 06:46:37;;;;;;;340.53;186.33;;;;;;;;;;4980709;28;20281;-50
2022/07/18 06:49:04;;;;;;;339.43;181.50;;;;;;;;;;4980854;28;20226;-50
2022/07/18 06:51:30;;;;;;;342.13;188.37;;;;;;;;;;4980109;28;20177;-50
2022/07/18 06:53:56;;;;;;;365.33;200.15;;;;;;;;;;4980610;28;20536;-50
2022/07/18 06:56:23;;;;;;;346.75;186.07;;;;;;;;;;4980507;28;20568;-50
2022/07/18 06:58:49;;;;;;;341.40;182.38;;;;;;;;;;4980866;28;20230;-50
2022/07/18 07:01:16;;;;;;;325.02;178.07;;;;;;;;;;4979117;28;20257;-50
2022/07/18 07:03:42;;;;;;;365.05;198.35;;;;;;;;;;4977900;28;20232;-50
2022/07/18 07:06:08;;;;;;;355.58;192.90;;;;;;;;;;4978497;28;20198;-49
2022/07/18 07:08:34;;;;;;;348.70;189.85;;;;;;;;;;4978510;28;20253;-50
2022/07/18 07:11:00;;;;;;;377.13;204.82;;;;;;;;;;4979567;28;20269;-50
2022/07/18 07:13:26;;;;;;;342.92;192.52;;;;;;;;;;4980606;28;20583;-51
2022/07/18 07:15:52;;;;;;;342.88;188.60;;;;;;;;;;4980029;28;20237;-50
2022/07/18 07:18:18;;;;;;;346.25;204.68;;;;;;;;;;4980819;28;20627;-51
2022/07/18 07:20:44;;;;;;;343.92;208.93;;;;;;;;;;4980134;28;20226;-51
2022/07/18 07:23:10;;;;;;;344.50;211.80;;;;;;;;;;4981092;28;20244;-51
2022/07/18 07:25:37;;;;;;;352.60;213.65;;;;;;;;;;4999330;28;20228;-51
2022/07/18 07:28:03;;;;;;;337.38;201.02;;;;;;;;;;4999702;28;20275;-50
2022/07/18 07:30:29;;;;;;;360.77;212.80;;;;;;;;;;4999202;28;20166;-50
2022/07/18 07:32:55;;;;;;;355.30;203.93;;;;;;;;;;4999450;28;20484;-50
2022/07/18 07:35:22;;;;;;;334.20;194.52;;;;;;;;;;4999181;28;20229;-50
2022/07/18 07:37:49;;;;;;;362.23;207.25;;;;;;;;;;4997714;28;20280;-50
2022/07/18 07:40:16;;;;;;;353.83;201.30;;;;;;;;;;4998460;28;20524;-50
2022/07/18 07:42:42;;;;;;;344.88;208.27;;;;;;;;;;4999086;28;20217;-50
2022/07/18 07:45:08;;;;;;;346.95;201.18;;;;;;;;;;4999556;28;20498;-50
2022/07/18 07:47:34;;;;;;;329.05;196.57;;;;;;;;;;4999160;28;20232;-50
2022/07/18 07:50:00;;;;;;;336.60;193.95;;;;;;;;;;4998918;28;20218;-50
2022/07/18 07:52:28;;;;;;;334.55;197.73;;;;;;;;;;4997982;28;20340;-50
2022/07/18 07:54:53;;;;;;;366.33;210.55;;;;;;;;;;4998536;28;20569;-50
2022/07/18 07:57:20;;;;;;;333.63;190.50;;;;;;;;;;4999492;28;20186;-51
2022/07/18 07:59:46;;;;;;;347.98;200.07;;;;;;;;;;4999298;28;20311;-50
2022/07/18 08:02:12;;;;;;;336.23;194.00;;;;;;;;;;4998853;28;20221;-50
2022/07/18 08:04:38;;;;;;;337.15;195.65;;;;;;;;;;4999254;28;20226;-49
2022/07/18 08:07:04;;;;;;;342.63;199.52;;;;;;;;;;4998827;28;20238;-50
2022/07/18 08:09:30;;;;;;;345.08;201.80;;;;;;;;;;4998939;28;20170;-50
2022/07/18 08:11:56;;;;;;;335.20;194.40;;;;;;;;;;4999272;28;20170;-50
2022/07/18 08:14:22;;;;;;;329.77;194.10;;;;;;;;;;4998631;28;20689;-50
2022/07/18 08:16:48;;;;;;;349.48;207.25;;;;;;;;;;4998659;28;20230;-50
2022/07/18 08:19:14;;;;;;;342.50;200.05;;;;;;;;;;4998687;28;20228;-50
2022/07/18 08:21:40;;;;;;;339.63;201.98;;;;;;;;;;4998541;28;21204;-49
2022/07/18 08:24:06;;;;;;;364.45;214.40;;;;;;;;;;4999049;28;20510;-49
2022/07/18 08:26:35;;;;;;;344.15;204.45;;;;;;;;;;4998377;28;20275;-50
2022/07/18 08:29:01;;;;;;;339.73;195.93;;;;;;;;;;4998534;28;20236;-49
2022/07/18 08:31:26;;;;;;;355.63;210.63;;;;;;;;;;4998547;28;20225;-49
2022/07/18 08:33:52;;;;;;;350.85;200.07;;;;;;;;;;4998312;28;20224;-49
2022/07/18 08:36:20;;;;;;;348.77;203.70;;;;;;;;;;4998611;28;20234;-49
2022/07/18 08:38:46;;;;;;;344.48;199.57;;;;;;;;;;4999064;28;20205;-50
2022/07/18 08:41:12;;;;;;;357.33;204.55;;;;;;;;;;4998284;28;20243;-50
2022/07/18 08:43:38;;;;;;;326.85;202.55;;;;;;;;;;4998530;28;20225;-49
2022/07/18 08:46:06;;;;;;;354.27;207.70;;;;;;;;;;4998037;28;20217;-50
2022/07/18 08:48:32;;;;;;;357.85;210.45;;;;;;;;;;4998481;28;20192;-51
2022/07/18 08:50:59;;;;;;;367.23;209.20;;;;;;;;;;4996821;28;20174;-50
2022/07/18 08:53:25;;;;;;;327.42;198.02;;;;;;;;;;4996270;28;20225;-49
2022/07/18 08:55:51;;;;;;;318.85;205.80;;;;;;;;;;4998050;28;20222;-50
2022/07/18 08:58:17;;;;;;;344.48;223.18;;;;;;;;;;4997658;28;20790;-50
2022/07/18 09:00:44;;;;;;;366.83;231.32;;;;;;;;;;4996131;28;20228;-50
2022/07/18 09:03:10;;;;;;;349.42;214.70;;;;;;;;;;4997091;28;20181;-50
2022/07/18 09:05:37;;;;;;;349.88;220.73;;;;;;;;;;4998014;28;20220;-50
2022/07/18 09:08:22;;;;;;;348.40;216.07;;;;;;;;;;4997474;28;20237;-49
2022/07/18 09:10:50;;;;;;;332.85;212.13;;;;;;;;;;4997088;28;20225;-50
2022/07/18 09:13:16;;;;;;;353.17;217.45;;;;;;;;;;4997649;28;20217;-50
2022/07/18 09:16:01;;;;;;;357.73;215.55;;;;;;;;;;4997441;28;20709;-50
2022/07/18 09:18:27;;;;;;;353.75;220.00;;;;;;;;;;4997724;28;20547;-50
2022/07/18 09:21:04;;;;;;;330.52;210.60;;;;;;;;;;4998206;28;20166;-49
2022/07/18 09:23:31;;;;;;;337.80;214.32;;;;;;;;;;4997998;28;20236;-50
2022/07/18 09:25:59;;;;;;;343.38;217.05;;;;;;;;;;4997720;28;20562;-50
2022/07/18 09:28:25;;;;;;;342.80;215.90;;;;;;;;;;4997477;28;20236;-50
2022/07/18 09:30:51;;;;;;;357.35;220.30;;;;;;;;;;4997702;28;20221;-50
2022/07/18 09:33:17;;;;;;;376.90;230.57;;;;;;;;;;4996210;28;20177;-50
2022/07/18 09:35:47;;;;;;;352.05;221.20;;;;;;;;;;4995277;28;20225;-50
2022/07/18 09:38:17;;;;;;;357.92;221.30;;;;;;;;;;4995429;28;20550;-50
2022/07/18 09:40:45;;;;;;;338.10;209.73;;;;;;;;;;4995924;28;20232;-50
2022/07/18 09:43:12;;;;;;;360.52;221.07;;;;;;;;;;4997825;28;20218;-52
2022/07/18 09:45:51;;;;;;;355.38;228.50;;;;;;;;;;4996299;28;20630;-50
2022/07/18 09:48:20;;;;;;;347.17;215.68;;;;;;;;;;4998039;28;20186;-50
2022/07/18 09:50:49;;;;;;;363.05;223.63;;;;;;;;;;4997341;28;20209;-50
2022/07/18 09:53:15;;;;;;;340.17;229.18;;;;;;;;;;4997124;28;20225;-50
2022/07/18 09:55:49;;;;;;;352.65;235.45;;;;;;;;;;5001436;28;20218;-50
2022/07/18 09:58:19;;;;;;;350.17;227.63;;;;;;;;;;5001198;28;20221;-50
2022/07/18 10:00:45;;;;;;;348.88;223.85;;;;;;;;;;4999800;28;20225;-50
2022/07/18 10:03:11;;;;;;;356.23;232.18;;;;;;;;;;5001743;28;20640;-50
2022/07/18 10:05:38;;;;;;;356.05;234.63;;;;;;;;;;5001039;28;20221;-49
2022/07/18 10:08:09;;;;;;;355.55;226.52;;;;;;;;;;5001188;28;20283;-50
2022/07/18 10:10:36;;;;;;;338.33;215.45;;;;;;;;;;4999722;28;20217;-49
2022/07/18 10:13:03;;;;;;;354.25;233.45;;;;;;;;;;5000984;28;20275;-49
2022/07/18 10:15:31;;;;;;;356.40;233.35;;;;;;;;;;5000570;28;20602;-50
2022/07/18 10:17:57;;;;;;;349.73;233.23;;;;;;;;;;5001508;28;20212;-50
2022/07/18 10:20:31;;;;;;;355.75;242.35;;;;;;;;;;5000401;28;20225;-50
2022/07/18 10:22:59;;;;;;;372.98;252.77;;;;;;;;;;5000615;28;20221;-50
2022/07/18 10:25:24;;;;;;;390.00;265.67;;;;;;;;;;4999632;28;20233;-49
2022/07/18 10:27:52;;;;;;;375.92;257.58;;;;;;;;;;5007760;28;20347;-50
2022/07/18 10:30:28;;;;;;;353.40;233.90;;;;;;;;;;5018915;28;20602;-50
2022/07/18 10:32:54;;;;;;;355.02;232.85;;;;;;;;;;5000641;28;20205;-50
2022/07/18 10:35:40;;;;;;;355.75;233.77;;;;;;;;;;5003922;28;20233;-50
2022/07/18 10:38:20;;;;;;;345.08;226.52;;;;;;;;;;5009649;28;20228;-50
2022/07/18 10:41:01;;;;;;;354.48;248.23;;;;;;;;;;5007364;28;20627;-50
2022/07/18 10:43:30;;;;;;;367.30;256.80;;;;;;;;;;4996331;28;20220;-50
2022/07/18 10:45:57;;;;;;;377.08;267.05;;;;;;;;;;4999474;28;20214;-50
2022/07/18 10:48:35;;;;;;;391.52;276.50;;;;;;;;;;4997414;28;20252;-50
2022/07/18 10:51:12;;;;;;;350.67;260.73;;;;;;;;;;4996664;28;20219;-50
2022/07/18 10:53:59;;;;;;;358.40;267.88;;;;;;;;;;4999737;28;20259;-50
2022/07/18 10:56:28;;;;;;;354.42;264.20;;;;;;;;;;4990766;28;20236;-50
2022/07/18 10:58:58;;;;;;;360.25;263.33;;;;;;;;;;4995769;28;20225;-50
2022/07/18 11:01:25;;;;;;;381.20;273.08;;;;;;;;;;4997607;28;20229;-50
2022/07/18 11:04:11;;;;;;;372.70;272.33;;;;;;;;;;4994452;28;20230;-50
2022/07/18 11:06:56;;;;;;;374.77;273.73;;;;;;;;;;4978246;28;20217;-50
2022/07/18 11:09:40;;;;;;;386.25;271.42;;;;;;;;;;4995927;28;20166;-50
2022/07/18 11:12:35;;;;;;;334.67;251.38;;;;;;;;;;4996624;28;20177;-50
2022/07/18 11:15:04;;;;;;;354.38;261.73;;;;;;;;;;5000156;28;20229;-50
2022/07/18 11:17:49;;;;;;;339.63;257.95;;;;;;;;;;4990704;28;20333;-50
2022/07/18 11:20:27;;;;;;;364.30;270.90;;;;;;;;;;4989686;28;20665;-50
2022/07/18 11:22:53;;;;;;;356.67;268.40;;;;;;;;;;5004183;28;20279;-50
2022/07/18 11:25:19;;;;;;;352.88;270.73;;;;;;;;;;4993845;28;20222;-51
2022/07/18 11:27:45;;;;;;;343.15;259.88;;;;;;;;;;5000713;28;20236;-51
2022/07/18 11:30:18;;;;;;;394.67;281.25;;;;;;;;;;5007447;28;20173;-50
2022/07/18 11:32:44;;;;;;;362.83;263.50;;;;;;;;;;4998454;28;20234;-50
2022/07/18 11:35:11;;;;;;;387.35;290.48;;;;;;;;;;4999025;28;20229;-50
2022/07/18 11:37:37;;;;;;;346.42;267.08;;;;;;;;;;4993761;28;20233;-51
2022/07/18 11:40:06;;;;;;;351.35;274.15;;;;;;;;;;4997803;28;20674;-50
2022/07/18 11:42:36;;;;;;;375.48;284.40;;;;;;;;;;4994452;28;20539;-51
2022/07/18 11:45:03;;;;;;;354.02;262.98;;;;;;;;;;4994373;28;20177;-50
2022/07/18 11:47:28;;;;;;;368.33;281.30;;;;;;;;;;4992803;28;20232;-51
2022/07/18 11:49:55;;;;;;;418.88;310.20;;;;;;;;;;4993306;28;20222;-51
2022/07/18 11:52:22;;;;;;;397.50;304.42;;;;;;;;;;4977430;28;20893;-51
2022/07/18 11:54:48;;;;;;;449.95;309.23;;;;;;;;;;4976720;28;20221;-54
2022/07/18 11:57:13;;;;;;;468.17;337.38;;;;;;;;;;4970876;28;20217;-53
2022/07/18 11:59:41;;;;;;;422.00;325.15;;;;;;;;;;4975257;28;20229;-53
2022/07/18 12:02:08;;;;;;;414.02;320.52;;;;;;;;;;4963697;28;20477;-53
2022/07/18 12:04:34;;;;;;;420.00;327.80;;;;;;;;;;4973843;28;20225;-53
2022/07/18 12:07:19;;;;;;;412.52;321.27;;;;;;;;;;4975228;28;20233;-53
2022/07/18 12:09:46;;;;;;;394.55;301.40;;;;;;;;;;4988460;28;20221;-53
2022/07/18 12:12:13;;;;;;;384.55;294.05;;;;;;;;;;4977018;28;20185;-53
2022/07/18 12:14:39;;;;;;;436.35;322.63;;;;;;;;;;4976772;28;20286;-53
2022/07/18 12:17:05;;;;;;;433.85;325.80;;;;;;;;;;4972656;28;20233;-53
2022/07/18 12:19:39;;;;;;;442.10;318.50;;;;;;;;;;4976977;28;20217;-53
2022/07/18 12:22:11;;;;;;;461.10;341.85;;;;;;;;;;4969836;28;20229;-53
2022/07/18 12:24:42;;;;;;;406.88;300.05;;;;;;;;;;4979755;28;20189;-53
2022/07/18 12:27:17;;;;;;;431.77;324.42;;;;;;;;;;4970703;28;20213;-53
2022/07/18 12:30:13;;;;;;;451.48;324.48;;;;;;;;;;4972297;28;20217;-53
2022/07/18 12:32:45;;;;;;;429.50;312.02;;;;;;;;;;4971713;28;20221;-53
2022/07/18 12:35:11;;;;;;;464.17;337.48;;;;;;;;;;4988821;28;20220;-53
2022/07/18 12:37:37;;;;;;;441.35;327.73;;;;;;;;;;4981465;28;20242;-53
2022/07/18 12:40:10;;;;;;;422.23;312.80;;;;;;;;;;4981497;28;20226;-53
2022/07/18 12:42:37;;;;;;;403.92;307.98;;;;;;;;;;4983262;28;20196;-53
2022/07/18 12:45:04;;;;;;;431.73;320.73;;;;;;;;;;4971400;28;20192;-53
2022/07/18 12:47:30;;;;;;;481.92;353.88;;;;;;;;;;4968789;28;20221;-53
2022/07/18 12:49:56;;;;;;;457.02;345.42;;;;;;;;;;4967521;28;20581;-53
2022/07/18 12:52:22;;;;;;;444.25;336.85;;;;;;;;;;4970499;28;20224;-53
2022/07/18 12:54:48;;;;;;;427.25;336.77;;;;;;;;;;4975244;28;20230;-53
2022/07/18 12:57:14;;;;;;;429.88;344.33;;;;;;;;;;4973786;28;20206;-53
2022/07/18 12:59:40;;;;;;;491.30;367.45;;;;;;;;;;4969504;28;20221;-53
2022/07/18 13:02:06;;;;;;;483.92;363.13;;;;;;;;;;4967040;28;20717;-54
2022/07/18 13:04:32;;;;;;;437.30;346.42;;;;;;;;;;4964864;28;20671;-53
2022/07/18 13:06:58;;;;;;;467.10;366.98;;;;;;;;;;4977148;28;20232;-54
2022/07/18 13:09:24;;;;;;;439.73;359.88;;;;;;;;;;4983671;28;20371;-53
2022/07/18 13:11:50;;;;;;;418.73;347.23;;;;;;;;;;4982477;28;20198;-53
2022/07/18 13:14:17;;;;;;;438.88;358.48;;;;;;;;;;4973411;28;20726;-53
2022/07/18 13:16:45;;;;;;;454.77;367.67;;;;;;;;;;4969362;28;20949;-54
2022/07/18 13:19:11;;;;;;;396.38;333.98;;;;;;;;;;4999795;28;20522;-53
2022/07/18 13:21:37;;;;;;;405.08;348.23;;;;;;;;;;4983483;28;20384;-53
2022/07/18 13:24:03;;;;;;;443.42;354.02;;;;;;;;;;4983118;28;20182;-53
2022/07/18 13:26:29;;;;;;;415.33;346.75;;;;;;;;;;4975907;28;20701;-54
2022/07/18 13:28:55;;;;;;;418.15;356.58;;;;;;;;;;4985538;28;20221;-53
2022/07/18 13:31:21;;;;;;;435.67;367.98;;;;;;;;;;4981046;28;20217;-54
2022/07/18 13:33:47;;;;;;;425.50;364.38;;;;;;;;;;4979940;28;20236;-53
2022/07/18 13:36:14;;;;;;;424.63;360.98;;;;;;;;;;4983213;28;20181;-54
2022/07/18 13:38:40;;;;;;;406.67;351.15;;;;;;;;;;4980683;28;20228;-53
2022/07/18 13:41:06;;;;;;;398.25;346.77;;;;;;;;;;5007156;28;20221;-53
2022/07/18 13:43:33;;;;;;;436.52;357.70;;;;;;;;;;4981328;28;20218;-54
2022/07/18 13:45:58;;;;;;;409.60;351.52;;;;;;;;;;4984185;28;20209;-53
2022/07/18 13:48:24;;;;;;;448.92;377.05;;;;;;;;;;4982031;28;20193;-53
2022/07/18 13:50:50;;;;;;;422.30;374.55;;;;;;;;;;4987966;28;20182;-53
2022/07/18 13:53:16;;;;;;;405.23;341.67;;;;;;;;;;4987995;28;20233;-53
2022/07/18 13:55:42;;;;;;;424.30;355.58;;;;;;;;;;4982010;28;20225;-53